Time;durP1;ratioP1;P1;durP2;ratioP2;P2;SDS_P1;SDS_P2;PMS_P1;PMS_P2;Temp;Humidity;BMP_temperature;BMP_pressure;BME280_temperature;BME280_humidity;BME280_pressure;Samples;Min_cycle;Max_cycle;Signal;HPM_P1;HPM_P2
2022/10/20 00:01:27;;;;;;;8.83;5.70;;;;;;;11.28;100.00;99614.06;5016063;28;20221;-81
2022/10/20 00:03:57;;;;;;;7.83;5.60;;;;;;;11.06;100.00;99603.88;5047836;28;20247;-81
2022/10/20 00:06:29;;;;;;;6.57;5.00;;;;;;;11.12;100.00;99610.63;5052546;28;20197;-81
2022/10/20 00:09:00;;;;;;;6.50;5.77;;;;;;;11.08;100.00;99602.00;5043314;28;20197;-81
2022/10/20 00:11:33;;;;;;;7.37;5.63;;;;;;;10.98;100.00;99605.28;5001640;28;20193;-80
2022/10/20 00:14:03;;;;;;;8.93;4.90;;;;;;;10.97;100.00;99601.78;5026615;28;20255;-81
2022/10/20 00:16:35;;;;;;;8.13;5.47;;;;;;;10.94;100.00;99607.25;4966697;28;20203;-80
2022/10/20 00:19:05;;;;;;;8.27;5.17;;;;;;;10.90;100.00;99597.75;4968122;28;20293;-81
2022/10/20 00:21:35;;;;;;;7.60;5.40;;;;;;;10.95;100.00;99589.56;4969605;28;20352;-81
2022/10/20 00:24:04;;;;;;;7.87;5.13;;;;;;;10.98;100.00;99584.91;4970725;28;20256;-80
2022/10/20 00:26:33;;;;;;;8.63;5.37;;;;;;;10.88;100.00;99578.44;4970555;28;20207;-81
2022/10/20 00:29:04;;;;;;;10.63;5.53;;;;;;;10.57;100.00;99580.22;4970655;28;20192;-80
2022/10/20 00:31:33;;;;;;;9.80;5.17;;;;;;;10.54;100.00;99577.75;4969179;28;20319;-81
2022/10/20 00:34:04;;;;;;;10.47;5.13;;;;;;;10.43;100.00;99577.53;4965409;28;20250;-81
2022/10/20 00:36:32;;;;;;;8.07;5.30;;;;;;;10.43;100.00;99576.69;4953918;28;20199;-80
2022/10/20 00:39:02;;;;;;;9.63;5.67;;;;;;;10.24;100.00;99579.50;4966911;28;20192;-81
2022/10/20 00:41:31;;;;;;;12.70;5.20;;;;;;;10.37;100.00;99580.50;5007032;28;20185;-81
2022/10/20 00:44:01;;;;;;;8.23;5.30;;;;;;;10.22;100.00;99578.72;5029084;28;20255;-81
2022/10/20 00:46:37;;;;;;;6.13;5.10;;;;;;;10.06;100.00;99562.81;5024392;28;20210;-81
2022/10/20 00:49:12;;;;;;;9.13;5.80;;;;;;;10.01;100.00;99571.00;5026892;28;20196;-81
2022/10/20 00:51:41;;;;;;;7.70;5.50;;;;;;;9.91;100.00;99571.59;5015579;28;20229;-81
2022/10/20 00:54:16;;;;;;;9.13;5.27;;;;;;;9.91;100.00;99567.16;5026397;28;20276;-81
2022/10/20 00:56:47;;;;;;;8.67;5.57;;;;;;;9.78;100.00;99568.75;5016996;28;20197;-81
2022/10/20 00:59:19;;;;;;;9.10;5.37;;;;;;;9.69;100.00;99569.25;5024696;28;20218;-81
2022/10/20 01:01:50;;;;;;;7.80;5.23;;;;;;;9.68;100.00;99549.03;5023814;28;20295;-79
2022/10/20 01:04:19;;;;;;;12.00;5.63;;;;;;;9.61;100.00;99531.78;5022654;28;20201;-81
2022/10/20 01:06:47;;;;;;;7.57;5.70;;;;;;;9.58;100.00;99539.88;5030656;28;20198;-80
2022/10/20 01:09:17;;;;;;;11.87;6.83;;;;;;;9.61;100.00;99531.78;5081260;28;20643;-81
2022/10/20 01:11:57;;;;;;;7.97;5.93;;;;;;;9.55;100.00;99529.44;5084979;28;20200;-80
2022/10/20 01:14:39;;;;;;;9.53;5.60;;;;;;;9.53;100.00;99521.59;5085346;28;20231;-80
2022/10/20 01:17:22;;;;;;;7.37;5.70;;;;;;;9.51;100.00;99531.41;5086738;28;20230;-80
2022/10/20 01:20:15;;;;;;;12.27;5.87;;;;;;;9.33;100.00;99525.31;5090341;28;20192;-80
2022/10/20 01:23:07;;;;;;;9.17;5.03;;;;;;;9.21;100.00;99522.47;5085965;28;20212;-80
2022/10/20 01:25:49;;;;;;;8.83;5.43;;;;;;;9.28;100.00;99516.78;5084385;28;20196;-81
2022/10/20 01:28:23;;;;;;;9.30;5.00;;;;;;;9.31;100.00;99511.34;5037203;28;20198;-80
2022/10/20 01:30:59;;;;;;;7.43;5.07;;;;;;;9.26;100.00;99507.22;5087439;28;20253;-81
2022/10/20 01:33:37;;;;;;;8.23;4.97;;;;;;;9.18;100.00;99495.28;5083182;28;20195;-80
2022/10/20 01:36:12;;;;;;;7.37;4.97;;;;;;;9.09;100.00;99495.75;5085861;28;20244;-80
2022/10/20 01:38:47;;;;;;;9.07;5.17;;;;;;;9.08;100.00;99486.13;5088243;28;20191;-80
2022/10/20 01:41:22;;;;;;;8.40;5.03;;;;;;;9.05;100.00;99481.00;5085558;28;20199;-80
2022/10/20 01:43:53;;;;;;;7.87;5.90;;;;;;;9.05;100.00;99475.72;5077757;28;20214;-80
2022/10/20 01:46:26;;;;;;;8.33;5.43;;;;;;;9.15;100.00;99474.28;5091321;28;20257;-80
2022/10/20 01:48:55;;;;;;;10.00;5.17;;;;;;;8.99;100.00;99483.13;5088341;28;20277;-81
2022/10/20 01:51:23;;;;;;;7.30;5.57;;;;;;;8.79;100.00;99477.09;5089968;28;20196;-80
2022/10/20 01:53:52;;;;;;;9.10;5.30;;;;;;;8.72;100.00;99488.03;5087845;28;20199;-81
2022/10/20 01:56:27;;;;;;;5.73;5.07;;;;;;;8.59;100.00;99479.91;5085255;28;20199;-80
2022/10/20 01:59:28;;;;;;;8.27;4.87;;;;;;;8.32;100.00;99480.31;5093063;28;20188;-80
2022/10/20 02:02:11;;;;;;;7.93;5.57;;;;;;;8.41;100.00;99476.38;5080723;28;20260;-80
2022/10/20 02:04:54;;;;;;;6.27;5.63;;;;;;;8.32;100.00;99482.09;5091040;28;20192;-80
2022/10/20 02:07:27;;;;;;;12.67;6.03;;;;;;;8.27;100.00;99476.16;5088266;28;20191;-80
2022/10/20 02:10:00;;;;;;;8.87;5.97;;;;;;;8.33;100.00;99486.44;5082487;28;20321;-80
2022/10/20 02:12:35;;;;;;;9.53;5.57;;;;;;;8.28;100.00;99478.72;5087415;28;20192;-80
2022/10/20 02:15:11;;;;;;;10.63;6.23;;;;;;;8.18;100.00;99484.53;5092732;28;20698;-80
2022/10/20 02:17:42;;;;;;;10.63;7.07;;;;;;;8.20;100.00;99474.75;5086703;28;20191;-80
2022/10/20 02:20:13;;;;;;;13.27;6.00;;;;;;;8.04;100.00;99483.44;5090374;28;20219;-80
2022/10/20 02:22:41;;;;;;;7.20;5.83;;;;;;;8.14;100.00;99485.63;5090387;28;20262;-80
2022/10/20 02:25:11;;;;;;;11.07;6.20;;;;;;;8.06;100.00;99475.44;5089308;28;20196;-79
2022/10/20 02:27:43;;;;;;;12.27;5.77;;;;;;;8.11;100.00;99477.88;5086619;28;20214;-80
2022/10/20 02:30:17;;;;;;;7.80;5.67;;;;;;;8.10;100.00;99465.59;5058378;28;20203;-80
2022/10/20 02:32:49;;;;;;;6.53;5.73;;;;;;;8.15;100.00;99467.09;5081719;28;20245;-80
2022/10/20 02:35:21;;;;;;;7.40;6.20;;;;;;;8.23;100.00;99470.19;5088164;28;20200;-80
2022/10/20 02:37:50;;;;;;;7.87;6.40;;;;;;;8.22;100.00;99465.00;5036821;28;20196;-80
2022/10/20 02:40:21;;;;;;;10.10;6.33;;;;;;;8.20;100.00;99467.72;5089472;28;20231;-80
2022/10/20 02:42:52;;;;;;;9.53;6.40;;;;;;;8.22;100.00;99459.72;5030249;28;20343;-80
2022/10/20 02:45:22;;;;;;;8.57;6.30;;;;;;;8.09;100.00;99455.97;4994211;28;20225;-80
2022/10/20 02:47:51;;;;;;;11.27;6.23;;;;;;;8.11;100.00;99455.00;5026495;28;20193;-79
2022/10/20 02:50:19;;;;;;;8.27;5.90;;;;;;;8.12;100.00;99458.47;5023758;28;20240;-80
2022/10/20 02:52:48;;;;;;;13.97;6.30;;;;;;;8.10;100.00;99455.03;5026571;28;20217;-80
2022/10/20 02:55:16;;;;;;;8.77;5.93;;;;;;;8.17;100.00;99457.31;5027472;28;20222;-80
2022/10/20 02:57:52;;;;;;;7.70;6.00;;;;;;;8.14;100.00;99452.19;5029283;28;20364;-80
2022/10/20 03:00:22;;;;;;;9.03;6.00;;;;;;;8.18;100.00;99439.69;5042529;28;20200;-79
2022/10/20 03:02:51;;;;;;;8.27;5.87;;;;;;;8.16;100.00;99436.28;5089076;28;20215;-80
2022/10/20 03:05:19;;;;;;;10.23;6.23;;;;;;;8.22;100.00;99441.25;5102370;28;20207;-80
2022/10/20 03:07:47;;;;;;;8.47;6.10;;;;;;;8.16;100.00;99433.63;5087813;28;20188;-81
2022/10/20 03:10:16;;;;;;;12.40;6.53;;;;;;;8.26;100.00;99438.38;5095294;28;20199;-81
2022/10/20 03:12:45;;;;;;;8.67;6.20;;;;;;;8.24;100.00;99434.13;5090533;28;20203;-80
2022/10/20 03:15:13;;;;;;;7.50;5.90;;;;;;;8.23;100.00;99437.69;5054597;28;20188;-80
2022/10/20 03:17:44;;;;;;;10.40;6.00;;;;;;;8.20;100.00;99432.53;5057350;28;20217;-80
2022/10/20 03:20:13;;;;;;;10.37;6.13;;;;;;;8.21;100.00;99429.00;5071763;28;20208;-81
2022/10/20 03:22:41;;;;;;;8.47;6.00;;;;;;;8.10;100.00;99436.56;5072075;28;20184;-81
2022/10/20 03:25:09;;;;;;;11.60;6.27;;;;;;;8.06;100.00;99430.59;4987297;28;20200;-80
2022/10/20 03:27:38;;;;;;;8.37;5.43;;;;;;;8.02;100.00;99432.56;5070257;28;20200;-80
2022/10/20 03:30:07;;;;;;;8.47;5.77;;;;;;;7.86;100.00;99433.38;5070193;28;20228;-80
2022/10/20 03:32:35;;;;;;;8.73;6.13;;;;;;;7.86;100.00;99428.94;5069392;28;20189;-80
2022/10/20 03:35:06;;;;;;;11.27;6.03;;;;;;;7.88;100.00;99431.50;5070877;28;20251;-80
2022/10/20 03:37:34;;;;;;;9.57;5.73;;;;;;;7.79;100.00;99432.78;5066885;28;20242;-80
2022/10/20 03:40:03;;;;;;;7.70;5.97;;;;;;;7.84;100.00;99422.03;5065329;28;20253;-80
2022/10/20 03:42:31;;;;;;;7.77;6.17;;;;;;;7.87;100.00;99432.44;5066863;28;20195;-80
2022/10/20 03:45:00;;;;;;;9.37;6.17;;;;;;;7.72;100.00;99432.25;5074172;28;20216;-80
2022/10/20 03:47:28;;;;;;;12.33;6.37;;;;;;;7.60;100.00;99434.59;5072871;28;20254;-80
2022/10/20 03:49:56;;;;;;;8.90;5.87;;;;;;;7.81;100.00;99436.22;5067473;28;20185;-80
2022/10/20 03:52:26;;;;;;;8.87;6.53;;;;;;;7.74;100.00;99432.19;5067598;28;20184;-80
2022/10/20 03:54:55;;;;;;;9.27;5.63;;;;;;;7.84;100.00;99432.59;5067518;28;20242;-80
2022/10/20 03:57:23;;;;;;;9.93;6.07;;;;;;;7.62;100.00;99424.84;5066314;28;20655;-80
2022/10/20 03:59:53;;;;;;;8.27;6.00;;;;;;;7.68;100.00;99419.28;5069209;28;20196;-81
2022/10/20 04:02:32;;;;;;;8.77;5.73;;;;;;;7.81;100.00;99427.44;5065241;28;20196;-81
2022/10/20 04:05:03;;;;;;;8.70;5.70;;;;;;;7.80;100.00;99412.56;5070648;28;20216;-80
2022/10/20 04:07:35;;;;;;;12.17;6.00;;;;;;;7.68;100.00;99411.38;5073837;28;20185;-80
2022/10/20 04:10:04;;;;;;;8.43;6.70;;;;;;;7.75;100.00;99402.25;5070897;28;20201;-80
2022/10/20 04:12:33;;;;;;;8.10;5.77;;;;;;;7.82;100.00;99400.16;5069070;28;20192;-80
2022/10/20 04:15:02;;;;;;;9.57;5.73;;;;;;;7.82;100.00;99397.53;5082894;28;20215;-80
2022/10/20 04:17:31;;;;;;;8.23;6.20;;;;;;;7.86;100.00;99386.75;5089897;28;20199;-80
2022/10/20 04:20:00;;;;;;;9.10;6.17;;;;;;;7.82;100.00;99374.66;5088317;28;20192;-80
2022/10/20 04:22:30;;;;;;;10.83;6.40;;;;;;;7.83;100.00;99375.50;5086562;28;20192;-80
2022/10/20 04:25:00;;;;;;;9.50;6.50;;;;;;;7.98;100.00;99369.47;5092353;28;20231;-80
2022/10/20 04:27:28;;;;;;;10.57;6.53;;;;;;;7.87;100.00;99358.59;5095006;28;20200;-80
2022/10/20 04:29:57;;;;;;;12.10;6.20;;;;;;;7.89;100.00;99362.00;5100368;28;20198;-80
2022/10/20 04:32:25;;;;;;;10.40;6.73;;;;;;;7.79;100.00;99351.06;5090553;28;20188;-81
2022/10/20 04:34:54;;;;;;;9.60;6.43;;;;;;;7.46;100.00;99359.69;5081235;28;20216;-80
2022/10/20 04:37:22;;;;;;;13.60;6.87;;;;;;;7.51;100.00;99359.44;5009243;28;20658;-80
2022/10/20 04:39:51;;;;;;;9.40;6.50;;;;;;;7.55;100.00;99347.84;5005336;28;20222;-80
2022/10/20 04:42:21;;;;;;;14.60;6.77;;;;;;;7.50;100.00;99341.94;5026196;28;20248;-80
2022/10/20 04:44:49;;;;;;;10.13;6.47;;;;;;;7.51;100.00;99345.44;5028251;28;20232;-80
2022/10/20 04:47:21;;;;;;;6.93;6.03;;;;;;;7.64;100.00;99349.19;5029852;28;20198;-80
2022/10/20 04:49:49;;;;;;;7.87;6.40;;;;;;;7.54;100.00;99345.31;5021683;28;20202;-80
2022/10/20 04:52:19;;;;;;;11.10;5.93;;;;;;;7.62;100.00;99337.84;5027137;28;20233;-80
2022/10/20 04:54:48;;;;;;;8.83;6.30;;;;;;;7.63;100.00;99343.06;5035654;28;20195;-80
2022/10/20 04:57:16;;;;;;;8.03;5.53;;;;;;;7.42;100.00;99334.41;5081922;28;20222;-79
2022/10/20 04:59:46;;;;;;;9.87;6.13;;;;;;;7.44;100.00;99326.44;5084053;28;20269;-80
2022/10/20 05:02:15;;;;;;;8.50;6.37;;;;;;;7.47;100.00;99327.13;5089075;28;20192;-80
2022/10/20 05:04:43;;;;;;;8.00;5.80;;;;;;;7.60;100.00;99326.53;5089344;28;20215;-80
2022/10/20 05:07:11;;;;;;;7.97;5.97;;;;;;;7.59;100.00;99322.19;5084206;28;20249;-79
2022/10/20 05:09:40;;;;;;;54.87;27.43;;;;;;;7.60;100.00;99316.84;5090025;28;20192;-80
2022/10/20 05:12:08;;;;;;;121.40;57.70;;;;;;;7.62;100.00;99314.13;5090182;28;20195;-80
2022/10/20 05:14:36;;;;;;;124.80;60.97;;;;;;;7.70;100.00;99301.41;5085598;28;20261;-81
2022/10/20 05:17:06;;;;;;;113.10;56.63;;;;;;;7.69;100.00;99307.63;5040322;28;20203;-80
2022/10/20 05:19:38;;;;;;;61.83;33.67;;;;;;;7.77;100.00;99299.34;5082443;28;20210;-79
2022/10/20 05:22:07;;;;;;;32.67;17.97;;;;;;;7.74;100.00;99305.63;5084988;28;20229;-80
2022/10/20 05:24:35;;;;;;;20.10;10.37;;;;;;;7.85;100.00;99310.34;5086468;28;20216;-80
2022/10/20 05:27:04;;;;;;;14.67;8.67;;;;;;;7.76;100.00;99295.84;5090172;28;20188;-80
2022/10/20 05:29:32;;;;;;;11.63;6.93;;;;;;;7.82;100.00;99294.69;5092831;28;20199;-80
2022/10/20 05:32:00;;;;;;;10.80;6.97;;;;;;;7.77;100.00;99286.16;5085780;28;20207;-80
2022/10/20 05:34:31;;;;;;;8.47;6.73;;;;;;;7.84;100.00;99280.50;5040124;28;20237;-80
2022/10/20 05:37:00;;;;;;;8.53;5.70;;;;;;;7.83;100.00;99272.66;5086457;28;20196;-80
2022/10/20 05:39:28;;;;;;;7.37;6.50;;;;;;;7.82;100.00;99263.91;5085584;28;20199;-79
2022/10/20 05:41:56;;;;;;;16.73;9.40;;;;;;;7.86;100.00;99256.69;5083688;28;20249;-79
2022/10/20 05:44:24;;;;;;;8.03;6.33;;;;;;;7.83;100.00;99262.13;5084704;28;20211;-80
2022/10/20 05:46:53;;;;;;;9.37;5.90;;;;;;;7.50;100.00;99254.13;5085238;28;20253;-80
2022/10/20 05:49:22;;;;;;;9.00;6.33;;;;;;;7.53;100.00;99262.75;5085272;28;20251;-80
2022/10/20 05:51:53;;;;;;;13.33;8.90;;;;;;;7.48;100.00;99256.84;5088379;28;20594;-80
2022/10/20 05:54:21;;;;;;;13.10;8.50;;;;;;;7.49;100.00;99261.19;5085161;28;20188;-80
2022/10/20 05:56:50;;;;;;;11.87;8.43;;;;;;;7.44;100.00;99263.19;5088188;28;20195;-81
2022/10/20 05:59:18;;;;;;;14.93;9.00;;;;;;;7.47;100.00;99255.97;5090121;28;20253;-81
2022/10/20 06:01:51;;;;;;;16.50;11.47;;;;;;;7.41;100.00;99258.91;5083876;28;20188;-80
2022/10/20 06:04:23;;;;;;;13.70;10.13;;;;;;;7.44;100.00;99252.66;5011944;28;20190;-80
2022/10/20 06:06:54;;;;;;;13.47;8.20;;;;;;;7.58;100.00;99254.59;4975242;28;20279;-81
2022/10/20 06:09:24;;;;;;;10.10;7.60;;;;;;;7.67;100.00;99254.13;4968103;28;20227;-80
2022/10/20 06:11:53;;;;;;;12.47;7.23;;;;;;;7.77;100.00;99259.78;4891525;29;20357;-81
2022/10/20 06:14:21;;;;;;;15.47;7.80;;;;;;;7.70;100.00;99248.69;4889623;29;20238;-80
2022/10/20 06:16:50;;;;;;;17.77;7.70;;;;;;;7.72;100.00;99245.06;4895525;29;20210;-80
2022/10/20 06:19:19;;;;;;;11.10;7.50;;;;;;;7.81;100.00;99246.34;4892040;29;20334;-80
2022/10/20 06:21:47;;;;;;;13.73;9.33;;;;;;;7.77;100.00;99249.25;4896502;29;20201;-81
2022/10/20 06:24:18;;;;;;;16.07;8.97;;;;;;;7.93;100.00;99236.97;4866463;29;20206;-81
2022/10/20 06:26:48;;;;;;;27.90;14.97;;;;;;;7.87;100.00;99246.06;4896125;29;20278;-81
2022/10/20 06:29:18;;;;;;;39.13;17.77;;;;;;;7.85;100.00;99245.28;4943752;28;20204;-81
2022/10/20 06:31:49;;;;;;;101.97;54.23;;;;;;;7.60;100.00;99263.28;4973792;28;20199;-81
2022/10/20 06:34:19;;;;;;;22.43;13.70;;;;;;;7.18;100.00;99272.38;4972957;28;20196;-80
2022/10/20 06:36:48;;;;;;;13.60;11.23;;;;;;;7.33;100.00;99271.59;5008385;28;20205;-81
2022/10/20 06:39:20;;;;;;;12.80;8.13;;;;;;;7.56;100.00;99277.53;5092942;28;20188;-80
2022/10/20 06:41:49;;;;;;;11.27;8.03;;;;;;;7.59;100.00;99282.66;5086129;28;20192;-80
2022/10/20 06:44:21;;;;;;;12.00;8.20;;;;;;;7.86;100.00;99280.41;5089262;28;20188;-81
2022/10/20 06:46:53;;;;;;;13.53;8.47;;;;;;;7.97;100.00;99280.72;5053226;28;20247;-80
2022/10/20 06:49:22;;;;;;;11.23;8.07;;;;;;;8.14;100.00;99290.41;5088139;28;20200;-80
2022/10/20 06:51:51;;;;;;;12.30;8.10;;;;;;;8.14;100.00;99293.91;5089664;28;20195;-81
2022/10/20 06:54:21;;;;;;;11.60;8.07;;;;;;;8.22;100.00;99282.94;5094018;28;20194;-81
2022/10/20 06:56:50;;;;;;;12.77;8.00;;;;;;;8.17;100.00;99280.53;5085416;28;20249;-80
2022/10/20 06:59:18;;;;;;;9.37;7.47;;;;;;;8.33;100.00;99289.34;5052772;28;20204;-80
2022/10/20 07:01:46;;;;;;;14.00;7.30;;;;;;;8.22;100.00;99289.06;5027144;28;20229;-80
2022/10/20 07:04:21;;;;;;;12.50;7.47;;;;;;;8.13;100.00;99286.06;5028325;28;20190;-80
2022/10/20 07:06:52;;;;;;;10.60;7.00;;;;;;;8.34;100.00;99282.28;5027339;28;20217;-80
2022/10/20 07:09:22;;;;;;;12.83;7.00;;;;;;;8.51;100.00;99290.22;4968916;28;20207;-81
2022/10/20 07:11:52;;;;;;;14.27;7.50;;;;;;;8.55;100.00;99297.00;4967273;28;20195;-81
2022/10/20 07:14:20;;;;;;;10.37;7.30;;;;;;;8.47;100.00;99287.81;4970535;28;20252;-80
2022/10/20 07:16:49;;;;;;;8.20;7.17;;;;;;;8.65;100.00;99275.41;4892901;29;20210;-80
2022/10/20 07:19:18;;;;;;;12.43;7.60;;;;;;;8.74;100.00;99265.19;4896179;29;20242;-80
2022/10/20 07:21:47;;;;;;;10.70;7.83;;;;;;;8.83;100.00;99266.47;4898543;29;20257;-80
2022/10/20 07:24:16;;;;;;;15.53;8.10;;;;;;;8.83;100.00;99274.41;4910830;29;20245;-80
2022/10/20 07:26:51;;;;;;;13.13;7.23;;;;;;;8.77;100.00;99295.84;4927897;28;20242;-79
2022/10/20 07:29:23;;;;;;;12.43;7.63;;;;;;;8.92;100.00;99297.66;4980341;28;20198;-80
2022/10/20 07:31:52;;;;;;;10.43;7.13;;;;;;;8.99;100.00;99300.84;5007190;28;20203;-80
2022/10/20 07:34:22;;;;;;;11.17;6.93;;;;;;;8.99;100.00;99304.31;4990599;28;20203;-80
2022/10/20 07:36:55;;;;;;;13.13;8.17;;;;;;;9.14;100.00;99287.59;4988107;28;20195;-80
2022/10/20 07:39:25;;;;;;;10.73;8.17;;;;;;;9.28;100.00;99286.84;4990738;28;20237;-80
2022/10/20 07:41:55;;;;;;;13.13;8.73;;;;;;;9.38;100.00;99297.75;5044782;28;20189;-80
2022/10/20 07:44:24;;;;;;;12.13;8.27;;;;;;;9.34;100.00;99301.47;5072295;28;20339;-80
2022/10/20 07:46:52;;;;;;;12.10;8.13;;;;;;;9.33;100.00;99300.63;5069531;28;20216;-81
2022/10/20 07:49:21;;;;;;;10.67;8.33;;;;;;;9.52;100.00;99295.16;5039099;28;20271;-80
2022/10/20 07:52:09;;;;;;;11.73;8.90;;;;;;;9.83;100.00;99278.34;5072175;28;20204;-80
2022/10/20 07:54:37;;;;;;;13.57;9.87;;;;;;;10.04;100.00;99261.22;5060966;28;20199;-79
2022/10/20 07:57:08;;;;;;;12.50;9.60;;;;;;;10.14;100.00;99258.00;5061343;28;20364;-80
2022/10/20 07:59:36;;;;;;;11.93;9.23;;;;;;;10.21;100.00;99257.53;5088569;28;20211;-80
2022/10/20 08:02:05;;;;;;;12.07;8.83;;;;;;;10.24;100.00;99278.56;5031152;28;20189;-80
2022/10/20 08:04:33;;;;;;;15.07;9.20;;;;;;;10.09;100.00;99283.88;5024852;28;20194;-80
2022/10/20 08:07:04;;;;;;;11.93;9.17;;;;;;;10.28;100.00;99272.13;5028551;28;20401;-81
2022/10/20 08:09:33;;;;;;;12.10;9.57;;;;;;;10.42;100.00;99281.91;5028296;28;20252;-79
2022/10/20 08:12:02;;;;;;;13.93;10.07;;;;;;;10.42;100.00;99281.91;5026943;28;20221;-80
2022/10/20 08:14:34;;;;;;;11.27;8.83;;;;;;;10.71;100.00;99261.53;5022975;28;20217;-80
2022/10/20 08:17:03;;;;;;;16.97;9.87;;;;;;;10.92;100.00;99266.44;5021468;28;20205;-80
2022/10/20 08:19:32;;;;;;;14.57;9.73;;;;;;;11.13;100.00;99271.19;5038382;28;20204;-81
2022/10/20 08:22:14;;;;;;;13.37;9.30;;;;;;;11.00;100.00;99265.00;5089141;28;20188;-80
2022/10/20 08:24:43;;;;;;;13.60;8.87;;;;;;;11.21;100.00;99243.34;5084953;28;20192;-80
2022/10/20 08:27:13;;;;;;;12.77;9.10;;;;;;;11.33;100.00;99240.72;5091427;28;20215;-80
2022/10/20 08:29:43;;;;;;;10.97;9.00;;;;;;;11.46;100.00;99231.00;5088980;28;20194;-80
2022/10/20 08:32:28;;;;;;;12.03;8.97;;;;;;;11.58;100.00;99242.63;5092214;28;20191;-81
2022/10/20 08:34:57;;;;;;;10.43;8.50;;;;;;;11.41;100.00;99229.63;5085160;28;20192;-80
2022/10/20 08:37:25;;;;;;;12.50;9.00;;;;;;;11.67;100.00;99228.72;5093746;28;20193;-80
2022/10/20 08:39:54;;;;;;;15.07;9.37;;;;;;;11.61;100.00;99223.84;5091376;28;20195;-81
2022/10/20 08:42:22;;;;;;;13.13;9.00;;;;;;;11.73;100.00;99214.19;5088270;28;20249;-80
2022/10/20 08:45:00;;;;;;;10.57;8.73;;;;;;;11.83;100.00;99231.22;5086944;28;20657;-80
2022/10/20 08:47:33;;;;;;;11.63;7.93;;;;;;;11.91;100.00;99222.75;5091701;28;20306;-81
2022/10/20 08:50:03;;;;;;;11.57;8.40;;;;;;;11.99;100.00;99205.34;5085204;28;20201;-80
2022/10/20 08:52:32;;;;;;;10.47;8.87;;;;;;;11.92;100.00;99195.25;5091516;28;20199;-80
2022/10/20 08:55:03;;;;;;;14.00;8.37;;;;;;;11.77;100.00;99197.09;5084872;28;20257;-80
2022/10/20 08:57:35;;;;;;;12.47;8.00;;;;;;;11.69;100.00;99205.59;5090840;28;20199;-80
2022/10/20 09:00:15;;;;;;;13.53;8.83;;;;;;;11.80;100.00;99201.41;5083343;28;20203;-80
2022/10/20 09:02:47;;;;;;;12.70;8.13;;;;;;;11.81;100.00;99200.44;5088524;28;20282;-80
2022/10/20 09:05:21;;;;;;;10.20;7.90;;;;;;;11.69;100.00;99188.84;5089397;28;20188;-80
2022/10/20 09:07:50;;;;;;;14.07;7.93;;;;;;;11.85;100.00;99205.41;5087353;28;20215;-80
2022/10/20 09:10:27;;;;;;;11.63;8.63;;;;;;;11.78;100.00;99190.88;5085926;28;20196;-80
2022/10/20 09:12:56;;;;;;;10.00;7.87;;;;;;;11.70;100.00;99193.19;5088516;28;20226;-80
2022/10/20 09:15:27;;;;;;;9.37;8.03;;;;;;;11.67;100.00;99188.06;5084023;28;20210;-80
2022/10/20 09:18:00;;;;;;;12.13;8.60;;;;;;;11.90;100.00;99186.53;5087930;28;20253;-81
2022/10/20 09:20:34;;;;;;;14.40;8.13;;;;;;;11.90;100.00;99199.81;5070693;28;20280;-80
2022/10/20 09:23:02;;;;;;;9.50;7.90;;;;;;;11.88;100.00;99191.13;5061123;28;20204;-80
2022/10/20 09:25:45;;;;;;;9.03;7.27;;;;;;;12.00;100.00;99191.09;5065867;28;20498;-80
2022/10/20 09:28:22;;;;;;;12.23;8.43;;;;;;;12.07;100.00;99183.56;5065442;28;20243;-80
2022/10/20 09:30:52;;;;;;;10.13;8.30;;;;;;;12.28;100.00;99163.47;5072247;28;20192;-80
2022/10/20 09:33:29;;;;;;;10.00;7.50;;;;;;;12.26;100.00;99165.41;5068046;28;20200;-80
2022/10/20 09:36:05;;;;;;;9.67;7.77;;;;;;;12.41;100.00;99159.94;5070148;28;20245;-80
2022/10/20 09:38:35;;;;;;;9.53;7.33;;;;;;;12.40;100.00;99163.56;5075370;28;20214;-80
2022/10/20 09:41:11;;;;;;;8.87;7.43;;;;;;;12.22;100.00;99174.53;5093135;28;20199;-80
2022/10/20 09:43:47;;;;;;;11.33;7.27;;;;;;;12.39;100.00;99181.31;5091860;28;20211;-80
2022/10/20 09:46:27;;;;;;;9.87;7.60;;;;;;;12.27;100.00;99175.06;5050963;28;20212;-79
2022/10/20 09:48:58;;;;;;;10.90;7.97;;;;;;;12.41;100.00;99174.06;5021687;28;20589;-81
2022/10/20 09:51:28;;;;;;;9.90;7.20;;;;;;;12.37;100.00;99179.72;5047072;28;20211;-80
2022/10/20 09:54:01;;;;;;;12.17;7.33;;;;;;;12.51;100.00;99166.28;5051906;28;20200;-80
2022/10/20 09:56:32;;;;;;;9.83;7.27;;;;;;;12.65;100.00;99165.31;5049013;28;20236;-81
2022/10/20 09:59:06;;;;;;;10.97;7.67;;;;;;;12.78;100.00;99150.16;5048868;28;20197;-81
2022/10/20 10:01:52;;;;;;;8.30;6.87;;;;;;;12.80;100.00;99157.06;5052560;28;20275;-81
2022/10/20 10:04:32;;;;;;;10.10;7.97;;;;;;;12.68;100.00;99171.25;5070827;28;20241;-81
2022/10/20 10:07:01;;;;;;;8.87;7.40;;;;;;;12.72;100.00;99166.53;5086042;28;20211;-81
2022/10/20 10:09:33;;;;;;;11.47;7.20;;;;;;;12.79;100.00;99173.97;5092248;28;20306;-80
2022/10/20 10:12:05;;;;;;;9.23;6.87;;;;;;;12.95;100.00;99167.53;5091359;28;20695;-80
2022/10/20 10:14:36;;;;;;;12.93;7.23;;;;;;;12.80;100.00;99167.69;5090373;28;20247;-80
2022/10/20 10:17:08;;;;;;;12.93;7.73;;;;;;;12.61;100.00;99165.50;5088073;28;20200;-81
2022/10/20 10:19:37;;;;;;;15.67;7.73;;;;;;;12.73;100.00;99157.59;5093436;28;20523;-80
2022/10/20 10:22:09;;;;;;;9.57;7.37;;;;;;;12.58;100.00;99162.25;4969602;28;20192;-81
2022/10/20 10:24:45;;;;;;;9.30;7.57;;;;;;;12.54;100.00;99163.41;4968909;28;20258;-81
2022/10/20 10:27:23;;;;;;;11.23;7.40;;;;;;;12.70;100.00;99157.84;4971819;28;20223;-80
2022/10/20 10:29:52;;;;;;;10.80;7.17;;;;;;;12.72;100.00;99169.19;4973711;28;20250;-80
2022/10/20 10:32:26;;;;;;;12.40;7.40;;;;;;;12.84;100.00;99171.00;4967209;28;20220;-80
2022/10/20 10:35:12;;;;;;;10.17;7.00;;;;;;;12.99;100.00;99159.22;4972037;28;20199;-80
2022/10/20 10:37:42;;;;;;;10.33;6.90;;;;;;;12.73;100.00;99174.41;4897252;29;20768;-81
2022/10/20 10:40:16;;;;;;;10.60;7.87;;;;;;;12.81;100.00;99172.03;4935573;28;20205;-81
2022/10/20 10:43:06;;;;;;;11.90;7.80;;;;;;;13.01;100.00;99164.41;4990243;28;20207;-80
2022/10/20 10:45:45;;;;;;;11.13;8.33;;;;;;;13.01;100.00;99175.88;4991213;28;20203;-83
2022/10/20 10:48:44;;;;;;;9.73;8.27;;;;;;;13.00;100.00;99170.69;4997727;28;20214;-80
2022/10/20 10:51:22;;;;;;;11.10;8.37;;;;;;;12.79;100.00;99171.31;4996860;28;20648;-80
2022/10/20 10:54:06;;;;;;;11.53;8.30;;;;;;;12.70;100.00;99155.19;4991431;28;20201;-80
2022/10/20 10:56:45;;;;;;;11.00;8.47;;;;;;;12.78;100.00;99158.97;5075185;28;20191;-80
2022/10/20 10:59:21;;;;;;;14.50;9.13;;;;;;;12.74;100.00;99146.00;5088975;28;20267;-80
2022/10/20 11:02:32;;;;;;;15.07;9.10;;;;;;;12.72;100.00;99142.63;5082767;28;20184;-80
2022/10/20 11:05:25;;;;;;;11.43;9.37;;;;;;;12.77;100.00;99138.69;5088968;28;20199;-80
2022/10/20 11:08:09;;;;;;;11.67;9.57;;;;;;;12.76;100.00;99133.47;5088417;28;20220;-80
2022/10/20 11:10:48;;;;;;;11.80;8.50;;;;;;;12.82;100.00;99133.84;5088956;28;20202;-80
2022/10/20 11:13:25;;;;;;;13.07;9.87;;;;;;;12.59;100.00;99132.03;5095366;28;20215;-80
2022/10/20 11:16:23;;;;;;;16.20;9.90;;;;;;;12.74;100.00;99135.38;5084042;28;20195;-80
2022/10/20 11:19:17;;;;;;;12.97;9.50;;;;;;;12.82;100.00;99133.00;5083251;28;20241;-80
2022/10/20 11:21:58;;;;;;;14.47;9.63;;;;;;;13.00;100.00;99133.47;5087058;28;20283;-80
2022/10/20 11:24:53;;;;;;;13.63;9.70;;;;;;;12.99;100.00;99119.31;5081910;28;20191;-80
2022/10/20 11:27:26;;;;;;;14.80;9.73;;;;;;;12.86;100.00;99121.22;5088460;28;20199;-80
2022/10/20 11:30:03;;;;;;;16.40;9.60;;;;;;;12.90;100.00;99120.00;5087843;28;20195;-80
2022/10/20 11:32:38;;;;;;;30.37;17.77;;;;;;;13.06;100.00;99114.41;5090363;28;20203;-80
2022/10/20 11:35:16;;;;;;;10.10;9.00;;;;;;;12.94;100.00;99118.84;5086068;28;20199;-80
2022/10/20 11:37:50;;;;;;;12.97;9.63;;;;;;;12.92;100.00;99109.25;5088422;28;20195;-80
2022/10/20 11:40:24;;;;;;;13.33;9.93;;;;;;;12.96;100.00;99111.59;5087307;28;20184;-80
2022/10/20 11:43:05;;;;;;;14.67;10.00;;;;;;;12.86;100.00;99092.81;5089897;28;20188;-80
2022/10/20 11:45:45;;;;;;;13.07;9.70;;;;;;;12.96;100.00;99073.53;5091142;28;20195;-80
2022/10/20 11:48:23;;;;;;;12.47;10.20;;;;;;;12.97;100.00;99062.75;5085597;28;20219;-81